Time;durP1;ratioP1;P1;durP2;ratioP2;P2;SDS_P1;SDS_P2;PMS_P1;PMS_P2;Temp;Humidity;BMP_temperature;BMP_pressure;BME280_temperature;BME280_humidity;BME280_pressure;Samples;Min_cycle;Max_cycle;Signal;HPM_P1;HPM_P2
2022/03/19 00:06:21;;;;;;;;;4.00;4.00;;;;;;;;2;261075693;261075693;-84
2022/03/19 00:14:37;;;;;;;;;4.00;4.00;;;;;;;;2;261079438;261079438;-84
2022/03/19 00:23:37;;;;;;;;;6.00;6.00;;;;;;;;2;261074257;261074257;-84
2022/03/19 00:31:52;;;;;;;;;3.50;3.50;;;;;;;;2;261078692;261078692;-84
2022/03/19 00:40:53;;;;;;;;;2.00;2.00;;;;;;;;2;261079445;261079445;-83
2022/03/19 00:49:08;;;;;;;;;3.00;3.00;;;;;;;;2;261077667;261077667;-83
2022/03/19 00:58:09;;;;;;;;;4.50;4.50;;;;;;;;2;261071937;261071937;-83
2022/03/19 01:06:24;;;;;;;;;4.50;4.50;;;;;;;;2;261075637;261075637;-83
2022/03/19 01:15:25;;;;;;;;;3.00;3.00;;;;;;;;2;261075638;261075638;-83
2022/03/19 01:23:40;;;;;;;;;18.00;6.00;;;;;;;;2;261075502;261075502;-83
2022/03/19 01:32:41;;;;;;;;;2.00;2.00;;;;;;;;2;261073906;261073906;-83
2022/03/19 01:40:58;;;;;;;;;3.00;3.00;;;;;;;;2;261074804;261074804;-83
2022/03/19 01:49:58;;;;;;;;;2.00;2.00;;;;;;;;2;261073917;261073917;-83
2022/03/19 01:58:14;;;;;;;;;3.00;3.00;;;;;;;;2;261073121;261073121;-82
2022/03/19 02:07:14;;;;;;;;;2.00;2.00;;;;;;;;2;261073293;261073293;-83
2022/03/19 02:15:30;;;;;;;;;2.00;2.00;;;;;;;;2;261077986;261077986;-83
2022/03/19 02:33:05;;;;;;;;;1.50;1.50;;;;;;;;2;261076194;261076194;-83
2022/03/19 02:42:06;;;;;;;;;2.50;2.50;;;;;;;;2;261079696;261079696;-83
2022/03/19 02:50:22;;;;;;;;;2.00;2.00;;;;;;;;2;261076301;261076301;-83
2022/03/19 02:59:24;;;;;;;;;15.50;8.00;;;;;;;;2;261076283;261076283;-83
2022/03/19 03:07:40;;;;;;;;;4.00;4.00;;;;;;;;2;261078981;261078981;-83
2022/03/19 03:16:41;;;;;;;;;3.50;3.50;;;;;;;;2;261076982;261076982;-83
2022/03/19 03:24:57;;;;;;;;;21.00;9.00;;;;;;;;2;261076933;261076933;-83
2022/03/19 03:33:57;;;;;;;;;5.00;5.00;;;;;;;;2;261077985;261077985;-83
2022/03/19 03:42:13;;;;;;;;;10.50;6.50;;;;;;;;2;261076605;261076605;-83
2022/03/19 03:51:14;;;;;;;;;12.00;7.50;;;;;;;;2;261074693;261074693;-83
2022/03/19 03:59:30;;;;;;;;;5.00;5.00;;;;;;;;2;261074516;261074516;-83
2022/03/19 04:08:31;;;;;;;;;19.50;10.50;;;;;;;;2;261077094;261077094;-83
2022/03/19 04:16:46;;;;;;;;;10.50;10.50;;;;;;;;2;261076807;261076807;-83
2022/03/19 04:25:47;;;;;;;;;12.00;12.00;;;;;;;;2;261076655;261076655;-83
2022/03/19 04:34:03;;;;;;;;;6.50;6.50;;;;;;;;2;261074588;261074588;-83
2022/03/19 04:43:03;;;;;;;;;24.50;4.50;;;;;;;;2;261076589;261076589;-82
2022/03/19 04:51:20;;;;;;;;;16.00;12.00;;;;;;;;2;261078482;261078482;-82
2022/03/19 05:00:20;;;;;;;;;11.00;11.00;;;;;;;;2;261077388;261077388;-83
2022/03/19 05:08:36;;;;;;;;;11.00;11.00;;;;;;;;2;261076650;261076650;-82
2022/03/19 05:17:36;;;;;;;;;22.00;11.00;;;;;;;;2;261074937;261074937;-82
2022/03/19 05:25:52;;;;;;;;;11.50;11.50;;;;;;;;2;261077561;261077561;-82
2022/03/19 05:34:54;;;;;;;;;16.50;16.50;;;;;;;;2;261078243;261078243;-84
2022/03/19 05:43:09;;;;;;;;;10.00;10.00;;;;;;;;2;261076163;261076163;-81
2022/03/19 05:52:10;;;;;;;;;30.50;18.50;;;;;;;;2;261077145;261077145;-81
2022/03/19 06:00:25;;;;;;;;;18.50;18.50;;;;;;;;2;261075392;261075392;-81
2022/03/19 06:09:25;;;;;;;;;14.00;12.00;;;;;;;;2;261075191;261075191;-81
2022/03/19 06:17:41;;;;;;;;;17.00;13.50;;;;;;;;2;261076357;261076357;-81
2022/03/19 06:26:41;;;;;;;;;12.00;9.50;;;;;;;;2;261074612;261074612;-84
2022/03/19 06:34:56;;;;;;;;;30.50;23.50;;;;;;;;2;261076740;261076740;-81
2022/03/19 06:43:57;;;;;;;;;26.00;26.00;;;;;;;;2;261076900;261076900;-82
2022/03/19 06:52:12;;;;;;;;;48.50;34.50;;;;;;;;2;261076083;261076083;-83
2022/03/19 07:01:16;;;;;;;;;31.50;26.50;;;;;;;;2;261076595;261076595;-82
2022/03/19 07:09:31;;;;;;;;;38.50;24.50;;;;;;;;2;261077481;261077481;-82
2022/03/19 07:18:32;;;;;;;;;46.00;31.00;;;;;;;;2;261080310;261080310;-81
2022/03/19 07:26:47;;;;;;;;;24.00;24.00;;;;;;;;2;261082420;261082420;-82
2022/03/19 07:35:48;;;;;;;;;55.50;29.50;;;;;;;;2;261074407;261074407;-82
2022/03/19 07:44:04;;;;;;;;;38.50;33.00;;;;;;;;2;261080364;261080364;-82
2022/03/19 07:53:05;;;;;;;;;36.50;33.50;;;;;;;;2;261080996;261080996;-82
2022/03/19 08:01:20;;;;;;;;;65.50;32.00;;;;;;;;2;261078740;261078740;-82
2022/03/19 08:10:21;;;;;;;;;37.50;33.00;;;;;;;;2;261078129;261078129;-84
2022/03/19 08:18:37;;;;;;;;;33.50;31.50;;;;;;;;2;261077264;261077264;-84
2022/03/19 08:27:37;;;;;;;;;65.00;40.50;;;;;;;;2;261077504;261077504;-84
2022/03/19 08:35:53;;;;;;;;;39.00;32.50;;;;;;;;2;261078234;261078234;-85
2022/03/19 08:44:56;;;;;;;;;45.50;37.00;;;;;;;;2;261077036;261077036;-84
2022/03/19 08:53:12;;;;;;;;;52.50;35.50;;;;;;;;2;261079517;261079517;-85
2022/03/19 09:02:13;;;;;;;;;47.50;34.00;;;;;;;;2;261069095;261069095;-85
2022/03/19 09:10:28;;;;;;;;;52.50;44.00;;;;;;;;2;261075268;261075268;-87
2022/03/19 09:19:29;;;;;;;;;55.50;40.50;;;;;;;;2;261077051;261077051;-86
2022/03/19 09:27:44;;;;;;;;;45.50;37.00;;;;;;;;2;261078657;261078657;-86
2022/03/19 09:36:48;;;;;;;;;51.50;44.00;;;;;;;;2;261079906;261079906;-86
2022/03/19 09:45:05;;;;;;;;;38.00;32.00;;;;;;;;2;261076460;261076460;-86
2022/03/19 09:54:05;;;;;;;;;53.50;41.50;;;;;;;;2;261076892;261076892;-85
2022/03/19 10:02:21;;;;;;;;;53.50;44.00;;;;;;;;2;261078933;261078933;-84
2022/03/19 10:11:21;;;;;;;;;55.00;43.00;;;;;;;;2;261078666;261078666;-84
2022/03/19 10:20:00;;;;;;;;;52.50;41.00;;;;;;;;2;261076615;261076615;-84
2022/03/19 10:29:03;;;;;;;;;49.50;36.00;;;;;;;;2;261081678;261081678;-84
2022/03/19 10:37:35;;;;;;;;;48.50;39.00;;;;;;;;2;261077742;261077742;-84
2022/03/19 10:46:35;;;;;;;;;41.00;33.50;;;;;;;;2;261078244;261078244;-83
2022/03/19 10:55:11;;;;;;;;;42.50;37.50;;;;;;;;2;261074902;261074902;-83
2022/03/19 11:04:14;;;;;;;;;43.50;38.50;;;;;;;;2;261080288;261080288;-88
2022/03/19 11:12:31;;;;;;;;;60.50;41.50;;;;;;;;2;261082419;261082419;-84
2022/03/19 11:21:32;;;;;;;;;37.50;34.00;;;;;;;;2;261077120;261077120;-84
2022/03/19 11:29:47;;;;;;;;;43.00;35.50;;;;;;;;2;261077445;261077445;-84
2022/03/19 11:38:52;;;;;;;;;45.50;36.00;;;;;;;;2;261075680;261075680;-82
2022/03/19 11:47:13;;;;;;;;;57.00;41.00;;;;;;;;2;261078609;261078609;-83
2022/03/19 11:56:19;;;;;;;;;51.00;43.00;;;;;;;;2;261082132;261082132;-83
2022/03/19 12:04:47;;;;;;;;;32.50;30.00;;;;;;;;2;261077005;261077005;-83
2022/03/19 12:13:49;;;;;;;;;56.00;37.00;;;;;;;;2;261071097;261071097;-83
2022/03/19 12:22:04;;;;;;;;;38.50;35.00;;;;;;;;2;261070189;261070189;-82
2022/03/19 12:31:11;;;;;;;;;37.00;34.00;;;;;;;;2;261070684;261070684;-83
2022/03/19 12:39:27;;;;;;;;;49.50;35.50;;;;;;;;2;261069501;261069501;-82
2022/03/19 12:48:31;;;;;;;;;41.50;37.00;;;;;;;;2;261075911;261075911;-82
2022/03/19 12:56:47;;;;;;;;;49.50;33.50;;;;;;;;2;261079011;261079011;-81
2022/03/19 13:05:51;;;;;;;;;50.50;34.50;;;;;;;;2;261079062;261079062;-82
2022/03/19 13:14:06;;;;;;;;;62.00;33.50;;;;;;;;2;261079283;261079283;-80
2022/03/19 13:23:07;;;;;;;;;47.50;41.00;;;;;;;;2;261082924;261082924;-82
2022/03/19 13:31:22;;;;;;;;;55.50;37.50;;;;;;;;2;261077865;261077865;-81
2022/03/19 13:40:28;;;;;;;;;37.00;22.50;;;;;;;;2;261078473;261078473;-82
2022/03/19 13:48:44;;;;;;;;;38.50;34.50;;;;;;;;2;261076933;261076933;-82
2022/03/19 13:57:45;;;;;;;;;52.50;40.50;;;;;;;;2;261079920;261079920;-81
2022/03/19 14:06:01;;;;;;;;;57.50;36.50;;;;;;;;2;261077811;261077811;-80
2022/03/19 14:15:02;;;;;;;;;53.50;38.50;;;;;;;;2;261078875;261078875;-82
2022/03/19 14:23:18;;;;;;;;;52.00;38.50;;;;;;;;2;261077577;261077577;-82
2022/03/19 14:32:18;;;;;;;;;41.00;32.50;;;;;;;;2;261086253;261086253;-82
2022/03/19 14:40:34;;;;;;;;;38.50;35.00;;;;;;;;2;261076112;261076112;-82
2022/03/19 14:49:34;;;;;;;;;34.50;31.50;;;;;;;;2;261077734;261077734;-82
2022/03/19 14:57:50;;;;;;;;;39.50;35.50;;;;;;;;2;261079229;261079229;-82
2022/03/19 15:06:51;;;;;;;;;37.00;31.50;;;;;;;;2;261077761;261077761;-82
2022/03/19 15:15:08;;;;;;;;;39.50;26.00;;;;;;;;2;261082213;261082213;-83
2022/03/19 15:24:08;;;;;;;;;33.00;30.50;;;;;;;;2;261077433;261077433;-83
2022/03/19 15:32:23;;;;;;;;;40.00;35.50;;;;;;;;2;261078139;261078139;-83
2022/03/19 15:41:24;;;;;;;;;41.00;28.50;;;;;;;;2;261074622;261074622;-83
2022/03/19 15:49:39;;;;;;;;;42.00;26.50;;;;;;;;2;261079500;261079500;-83
2022/03/19 15:58:40;;;;;;;;;48.00;26.50;;;;;;;;2;261076089;261076089;-85
2022/03/19 16:06:55;;;;;;;;;31.50;30.00;;;;;;;;2;261079514;261079514;-85
2022/03/19 16:15:56;;;;;;;;;55.50;36.50;;;;;;;;2;261080766;261080766;-84
2022/03/19 16:24:11;;;;;;;;;46.50;35.00;;;;;;;;2;261081630;261081630;-84
2022/03/19 16:33:12;;;;;;;;;37.00;32.50;;;;;;;;2;261078127;261078127;-84
2022/03/19 16:41:27;;;;;;;;;29.00;28.00;;;;;;;;2;261081097;261081097;-87
2022/03/19 16:50:28;;;;;;;;;49.50;38.00;;;;;;;;2;261084697;261084697;-85
2022/03/19 16:58:43;;;;;;;;;42.00;28.50;;;;;;;;2;261084740;261084740;-84
2022/03/19 17:07:44;;;;;;;;;25.50;25.50;;;;;;;;2;261087173;261087173;-86
2022/03/19 17:16:00;;;;;;;;;33.50;32.00;;;;;;;;2;261065012;261065012;-86
2022/03/19 17:25:01;;;;;;;;;40.50;27.00;;;;;;;;2;261090035;261090035;-86
2022/03/19 17:33:16;;;;;;;;;23.50;23.50;;;;;;;;2;261083654;261083654;-83
2022/03/19 17:42:17;;;;;;;;;25.00;25.00;;;;;;;;2;261084905;261084905;-87
2022/03/19 17:50:32;;;;;;;;;23.00;23.00;;;;;;;;2;261079889;261079889;-87
2022/03/19 17:59:32;;;;;;;;;10.00;10.00;;;;;;;;2;261082786;261082786;-86
2022/03/19 18:07:48;;;;;;;;;30.50;18.50;;;;;;;;2;261082773;261082773;-88
2022/03/19 18:16:49;;;;;;;;;14.00;14.00;;;;;;;;2;261082303;261082303;-87
2022/03/19 18:25:06;;;;;;;;;13.00;13.00;;;;;;;;2;261074948;261074948;-88
2022/03/19 18:34:07;;;;;;;;;19.50;19.50;;;;;;;;2;261077732;261077732;-88
2022/03/19 18:42:23;;;;;;;;;11.50;11.50;;;;;;;;2;261078718;261078718;-90
2022/03/19 18:51:24;;;;;;;;;20.00;18.50;;;;;;;;2;261080442;261080442;-87
2022/03/19 18:59:42;;;;;;;;;11.00;11.00;;;;;;;;2;261080986;261080986;-85
2022/03/19 19:08:43;;;;;;;;;21.50;17.50;;;;;;;;2;261085894;261085894;-87
2022/03/19 19:16:58;;;;;;;;;39.00;19.00;;;;;;;;2;261082701;261082701;-85
2022/03/19 19:26:00;;;;;;;;;14.50;14.50;;;;;;;;2;261089710;261089710;-85
2022/03/19 19:34:15;;;;;;;;;16.50;14.00;;;;;;;;2;261078121;261078121;-87
2022/03/19 19:43:16;;;;;;;;;13.00;13.00;;;;;;;;2;261082902;261082902;-86
2022/03/19 19:51:31;;;;;;;;;17.50;9.50;;;;;;;;2;261086687;261086687;-86
2022/03/19 20:00:33;;;;;;;;;14.50;14.50;;;;;;;;2;261077795;261077795;-86
2022/03/19 20:08:49;;;;;;;;;9.50;9.50;;;;;;;;2;261082948;261082948;-89
2022/03/19 20:17:50;;;;;;;;;25.50;17.50;;;;;;;;2;261077664;261077664;-88
2022/03/19 20:26:05;;;;;;;;;13.00;13.00;;;;;;;;2;261090626;261090626;-89
2022/03/19 20:35:06;;;;;;;;;24.50;19.50;;;;;;;;2;261077558;261077558;-88
2022/03/19 20:43:21;;;;;;;;;16.50;16.50;;;;;;;;2;261078754;261078754;-89
2022/03/19 20:52:22;;;;;;;;;22.50;17.00;;;;;;;;2;261080150;261080150;-88
2022/03/19 21:00:38;;;;;;;;;13.50;13.50;;;;;;;;2;261079682;261079682;-87
2022/03/19 21:09:39;;;;;;;;;15.50;15.50;;;;;;;;2;261082500;261082500;-87
2022/03/19 21:17:58;;;;;;;;;14.50;14.50;;;;;;;;2;261079783;261079783;-87
2022/03/19 21:26:58;;;;;;;;;9.00;9.00;;;;;;;;2;261080320;261080320;-86
2022/03/19 21:35:14;;;;;;;;;9.50;9.50;;;;;;;;2;261081168;261081168;-87
2022/03/19 21:44:14;;;;;;;;;26.00;14.00;;;;;;;;2;261082270;261082270;-87
2022/03/19 21:55:49;;;;;;;;;11.00;7.00;;;;;;;;2;261077856;261077856;-88
2022/03/19 22:04:50;;;;;;;;;14.50;9.00;;;;;;;;2;261081845;261081845;-87
2022/03/19 22:13:06;;;;;;;;;10.50;10.50;;;;;;;;2;261080381;261080381;-87
2022/03/19 22:22:07;;;;;;;;;4.50;4.50;;;;;;;;2;261081461;261081461;-87
2022/03/19 22:30:22;;;;;;;;;3.50;3.50;;;;;;;;2;261078279;261078279;-87
2022/03/19 22:39:22;;;;;;;;;7.00;7.00;;;;;;;;2;261077785;261077785;-87
2022/03/19 22:44:57;;;;;;;;;2.00;2.00;;;;;;;;2;261082174;261082174;-87
2022/03/19 22:53:58;;;;;;;;;6.00;6.00;;;;;;;;2;261081688;261081688;-87
2022/03/19 23:02:13;;;;;;;;;15.50;4.50;;;;;;;;2;261084025;261084025;-87
2022/03/19 23:11:28;;;;;;;;;3.00;3.00;;;;;;;;2;261079127;261079127;-87
2022/03/19 23:19:43;;;;;;;;;7.00;7.00;;;;;;;;2;261080291;261080291;-87
2022/03/19 23:28:45;;;;;;;;;4.00;4.00;;;;;;;;2;261081064;261081064;-88
2022/03/19 23:37:00;;;;;;;;;3.00;3.00;;;;;;;;2;261080267;261080267;-87
2022/03/19 23:46:01;;;;;;;;;7.50;4.00;;;;;;;;2;261081293;261081293;-87
2022/03/19 23:54:21;;;;;;;;;3.00;3.00;;;;;;;;2;261081495;261081495;-87
